Time;durP1;ratioP1;P1;durP2;ratioP2;P2;SDS_P1;SDS_P2;PMS_P1;PMS_P2;Temp;Humidity;BMP_temperature;BMP_pressure;BME280_temperature;BME280_humidity;BME280_pressure;Samples;Min_cycle;Max_cycle;Signal;HPM_P1;HPM_P2
2023/07/21 00:00:15;;;;;;;2.30;2.10;;;;;;;21.83;41.98;96998.81;5009167;28;20551;-70
2023/07/21 00:02:41;;;;;;;2.67;2.27;;;;;;;21.86;42.08;97001.03;5008111;28;20189;-71
2023/07/21 00:05:08;;;;;;;3.30;2.43;;;;;;;21.71;42.33;96993.50;5012023;28;20506;-72
2023/07/21 00:07:35;;;;;;;2.50;2.30;;;;;;;21.72;42.99;96991.63;5007260;28;20894;-72
2023/07/21 00:10:07;;;;;;;4.60;2.60;;;;;;;21.78;43.10;96985.38;5007354;28;20419;-70
2023/07/21 00:12:37;;;;;;;3.23;2.20;;;;;;;21.71;42.75;96988.16;5011150;28;20544;-70
2023/07/21 00:15:04;;;;;;;2.53;2.00;;;;;;;21.72;42.40;96980.94;5009969;28;20423;-70
2023/07/21 00:17:31;;;;;;;2.53;2.33;;;;;;;21.70;42.63;96977.69;4989489;28;20434;-71
2023/07/21 00:20:10;;;;;;;2.77;2.10;;;;;;;21.69;42.56;96986.72;5010630;28;20931;-71
2023/07/21 00:22:36;;;;;;;8.03;2.00;;;;;;;21.74;41.23;96984.22;4975471;28;20442;-71
2023/07/21 00:25:05;;;;;;;2.17;1.97;;;;;;;21.69;40.07;96987.56;4993108;28;20940;-71
2023/07/21 00:27:31;;;;;;;4.90;1.90;;;;;;;21.67;39.31;96988.84;5007861;28;20222;-71
2023/07/21 00:29:56;;;;;;;2.77;1.77;;;;;;;21.57;39.62;96979.50;5002695;28;20423;-71
2023/07/21 00:32:22;;;;;;;2.27;1.80;;;;;;;21.53;39.57;96981.00;5009366;28;20230;-71
2023/07/21 00:34:48;;;;;;;3.50;1.90;;;;;;;21.49;39.41;96977.97;5006297;28;20176;-72
2023/07/21 00:37:14;;;;;;;2.20;1.80;;;;;;;21.61;39.61;96980.72;5009077;28;21234;-71
2023/07/21 00:39:40;;;;;;;2.00;1.60;;;;;;;21.67;39.06;96983.50;5009115;28;20591;-71
2023/07/21 00:42:06;;;;;;;2.27;2.07;;;;;;;21.72;38.93;96987.13;5012446;28;20447;-71
2023/07/21 00:44:34;;;;;;;2.50;1.80;;;;;;;21.85;39.77;96985.28;5011447;28;20459;-72
2023/07/21 00:47:00;;;;;;;2.00;1.80;;;;;;;21.90;40.80;96983.53;5012711;28;20843;-71
2023/07/21 00:49:26;;;;;;;3.93;1.90;;;;;;;21.91;41.22;96979.84;5012333;28;20558;-72
2023/07/21 00:51:51;;;;;;;3.43;1.97;;;;;;;21.88;41.16;96985.63;5011186;28;20510;-71
2023/07/21 00:54:17;;;;;;;6.30;1.77;;;;;;;21.93;40.98;96977.72;5012151;28;20192;-71
2023/07/21 00:56:43;;;;;;;2.33;1.83;;;;;;;22.01;41.01;96983.78;5014014;28;20295;-70
2023/07/21 00:59:08;;;;;;;4.10;2.03;;;;;;;22.06;40.91;96975.88;5019119;28;20303;-71
2023/07/21 01:01:34;;;;;;;3.23;1.83;;;;;;;22.09;41.00;96975.41;5020242;28;20693;-70
2023/07/21 01:03:59;;;;;;;2.90;1.87;;;;;;;22.07;42.15;96964.16;5011991;28;20423;-72
2023/07/21 01:06:27;;;;;;;3.53;2.13;;;;;;;22.02;42.25;96972.06;5011980;28;20218;-72
2023/07/21 01:08:55;;;;;;;2.00;1.63;;;;;;;22.00;42.41;96960.81;5010608;28;20872;-72
2023/07/21 01:11:21;;;;;;;3.23;2.20;;;;;;;21.90;43.10;96966.72;5015355;28;20462;-72
2023/07/21 01:13:46;;;;;;;3.23;2.20;;;;;;;21.89;42.95;96965.09;5013053;28;20415;-72
2023/07/21 01:16:12;;;;;;;2.37;1.90;;;;;;;21.82;43.07;96967.84;5015633;28;20451;-72
2023/07/21 01:18:38;;;;;;;3.67;2.40;;;;;;;21.81;43.25;96962.78;5016125;28;20188;-70
2023/07/21 01:21:04;;;;;;;3.70;2.27;;;;;;;21.71;42.96;96958.00;5019908;28;20180;-74
2023/07/21 01:23:47;;;;;;;2.77;2.23;;;;;;;21.66;43.77;96964.03;5011709;28;20486;-71
2023/07/21 01:26:14;;;;;;;2.43;1.90;;;;;;;21.57;43.74;96952.03;5004602;28;20540;-71
2023/07/21 01:28:40;;;;;;;3.43;2.00;;;;;;;21.52;43.64;96943.91;5014301;28;20481;-72
2023/07/21 01:31:06;;;;;;;2.33;2.07;;;;;;;21.56;43.80;96945.88;5012881;28;20991;-69
2023/07/21 01:33:32;;;;;;;4.33;2.20;;;;;;;21.57;43.18;96939.50;5011687;28;20530;-72
2023/07/21 01:35:59;;;;;;;2.40;1.90;;;;;;;21.59;42.91;96945.47;5016078;28;20208;-70
2023/07/21 01:38:24;;;;;;;1.70;1.60;;;;;;;21.64;42.98;96942.09;5015215;28;20470;-71
2023/07/21 01:40:50;;;;;;;6.30;1.90;;;;;;;21.66;42.77;96936.56;5017155;28;20419;-71
2023/07/21 01:43:16;;;;;;;3.00;1.77;;;;;;;21.70;42.54;96940.38;5010783;28;20196;-71
2023/07/21 01:45:41;;;;;;;2.53;2.00;;;;;;;21.66;42.78;96940.03;5010179;28;20239;-71
2023/07/21 01:48:07;;;;;;;1.97;1.77;;;;;;;21.71;42.91;96942.00;5011498;28;20210;-70
2023/07/21 01:50:33;;;;;;;2.83;1.90;;;;;;;21.72;43.62;96940.94;5010675;28;20180;-72
2023/07/21 01:53:00;;;;;;;6.93;1.97;;;;;;;21.58;43.72;96933.13;5013126;28;20596;-71
2023/07/21 01:55:32;;;;;;;2.70;2.10;;;;;;;21.49;44.21;96929.19;5009682;28;20447;-71
2023/07/21 01:58:02;;;;;;;2.43;2.13;;;;;;;21.52;44.02;96926.06;5016809;28;20490;-71
2023/07/21 02:00:34;;;;;;;2.47;1.93;;;;;;;21.37;44.58;96926.47;5010995;28;20431;-71
2023/07/21 02:03:01;;;;;;;2.60;2.00;;;;;;;21.37;44.18;96929.16;5028473;28;20418;-70
2023/07/21 02:05:27;;;;;;;3.23;2.30;;;;;;;21.36;44.21;96924.06;5010294;28;20824;-70
2023/07/21 02:07:52;;;;;;;5.43;2.00;;;;;;;21.36;44.24;96921.41;5010211;28;20456;-72
2023/07/21 02:10:18;;;;;;;3.20;2.20;;;;;;;21.42;44.16;96923.16;5010241;28;20188;-70
2023/07/21 02:12:43;;;;;;;2.50;2.10;;;;;;;21.39;43.92;96923.59;5013750;28;20196;-71
2023/07/21 02:15:09;;;;;;;3.70;2.03;;;;;;;21.24;45.07;96926.69;5019131;28;20194;-72
2023/07/21 02:17:36;;;;;;;3.53;1.97;;;;;;;21.24;45.58;96921.34;5015468;28;20185;-71
2023/07/21 02:20:08;;;;;;;2.37;2.10;;;;;;;21.28;45.43;96922.53;5009910;28;20419;-72
2023/07/21 02:22:40;;;;;;;3.60;2.10;;;;;;;21.24;45.14;96916.84;5010598;28;20434;-71
2023/07/21 02:25:08;;;;;;;3.30;2.27;;;;;;;21.26;44.75;96916.63;5009560;28;20518;-71
2023/07/21 02:27:34;;;;;;;3.90;2.10;;;;;;;21.21;44.49;96911.97;5012816;28;20478;-71
2023/07/21 02:30:00;;;;;;;2.40;2.20;;;;;;;21.20;44.67;96915.66;5011027;28;20451;-71
2023/07/21 02:32:28;;;;;;;10.23;2.43;;;;;;;21.17;44.50;96913.47;5014778;28;20599;-70
2023/07/21 02:34:53;;;;;;;2.80;2.30;;;;;;;21.11;44.82;96909.06;5009439;28;20423;-71
2023/07/21 02:37:19;;;;;;;2.60;2.03;;;;;;;21.02;45.23;96917.38;5010508;28;20435;-71
2023/07/21 02:39:44;;;;;;;2.37;1.90;;;;;;;21.07;45.03;96919.34;5009528;28;20779;-71
2023/07/21 02:42:10;;;;;;;2.77;2.23;;;;;;;20.99;45.13;96909.81;5008478;28;20180;-71
2023/07/21 02:44:35;;;;;;;2.30;2.10;;;;;;;20.99;44.99;96915.16;5009878;28;20215;-71
2023/07/21 02:47:01;;;;;;;5.70;2.00;;;;;;;21.05;44.48;96912.59;5015079;28;20212;-70
2023/07/21 02:49:26;;;;;;;2.90;2.20;;;;;;;21.09;44.69;96913.78;5010161;28;20717;-72
2023/07/21 02:51:52;;;;;;;6.03;2.00;;;;;;;21.11;44.38;96906.38;5011716;28;20673;-70
2023/07/21 02:54:17;;;;;;;2.87;2.00;;;;;;;21.11;44.74;96903.72;5009425;28;20188;-70
2023/07/21 02:56:43;;;;;;;5.20;2.17;;;;;;;21.12;45.02;96902.69;5015053;28;20330;-71
2023/07/21 02:59:09;;;;;;;2.10;1.70;;;;;;;21.11;45.18;96895.72;5009604;28;20564;-69
2023/07/21 03:01:35;;;;;;;3.00;2.70;;;;;;;21.10;45.27;96905.59;5009499;28;20180;-70
2023/07/21 03:04:00;;;;;;;5.47;3.30;;;;;;;21.00;45.74;96894.66;5004963;28;20204;-71
2023/07/21 03:06:29;;;;;;;9.33;2.90;;;;;;;20.99;46.32;96898.34;5007706;28;20212;-71
2023/07/21 03:08:55;;;;;;;2.93;2.63;;;;;;;20.97;46.27;96901.25;5003900;28;20191;-71
2023/07/21 03:11:21;;;;;;;6.37;2.50;;;;;;;20.95;45.71;96898.00;5007766;28;20964;-71
2023/07/21 03:13:47;;;;;;;4.60;2.80;;;;;;;20.87;45.31;96901.78;5008517;28;20799;-70
2023/07/21 03:16:13;;;;;;;2.53;2.30;;;;;;;20.80;45.43;96902.91;5005437;28;20455;-72
2023/07/21 03:18:38;;;;;;;2.70;2.10;;;;;;;20.71;45.95;96900.53;5011864;28;20189;-71
2023/07/21 03:21:04;;;;;;;2.63;2.20;;;;;;;20.66;46.15;96900.41;5010561;28;20185;-72
2023/07/21 03:23:30;;;;;;;4.33;2.37;;;;;;;20.73;46.12;96900.28;5009450;28;20238;-72
2023/07/21 03:25:55;;;;;;;4.17;2.07;;;;;;;20.74;45.82;96893.94;5009189;28;20231;-71
2023/07/21 03:28:25;;;;;;;2.93;1.77;;;;;;;20.76;45.61;96902.53;5009808;28;20226;-72
2023/07/21 03:31:00;;;;;;;3.40;2.50;;;;;;;20.74;45.39;96896.59;5008607;28;20176;-71
2023/07/21 03:33:26;;;;;;;2.10;1.90;;;;;;;20.74;45.04;96887.81;5008333;28;20426;-71
2023/07/21 03:36:02;;;;;;;2.10;1.80;;;;;;;20.75;45.10;96887.59;5008133;28;20447;-71
2023/07/21 03:38:29;;;;;;;2.67;2.20;;;;;;;20.72;45.37;96883.53;5009702;28;20238;-71
2023/07/21 03:41:10;;;;;;;3.63;2.10;;;;;;;20.60;46.17;96890.66;5010812;28;20423;-72
2023/07/21 03:43:37;;;;;;;2.57;2.37;;;;;;;20.65;45.98;96893.47;5009510;28;20474;-70
2023/07/21 03:46:03;;;;;;;5.23;2.30;;;;;;;20.67;46.25;96896.69;5007600;28;20999;-71
2023/07/21 03:48:30;;;;;;;3.87;2.30;;;;;;;20.61;46.40;96899.44;5012737;28;20423;-73
2023/07/21 03:50:57;;;;;;;3.80;2.23;;;;;;;20.59;46.59;96891.69;5008420;28;20500;-72
2023/07/21 03:53:24;;;;;;;3.60;2.20;;;;;;;20.54;46.95;96886.25;5012205;28;20426;-71
2023/07/21 03:55:49;;;;;;;3.70;2.33;;;;;;;20.52;46.72;96888.31;5007063;28;20431;-73
2023/07/21 03:58:15;;;;;;;4.33;2.13;;;;;;;20.52;46.83;96888.31;5005037;28;20859;-70
2023/07/21 04:00:42;;;;;;;4.50;1.90;;;;;;;20.48;46.07;96887.91;5008193;28;20238;-70
2023/07/21 04:03:08;;;;;;;2.93;2.17;;;;;;;20.50;45.46;96890.38;5007674;28;20176;-73
2023/07/21 04:05:33;;;;;;;7.63;2.30;;;;;;;20.45;45.17;96887.56;5007769;28;20443;-73
2023/07/21 04:07:59;;;;;;;2.30;1.93;;;;;;;20.48;44.88;96879.13;5008101;28;20905;-70
2023/07/21 04:10:24;;;;;;;3.10;2.40;;;;;;;20.52;44.38;96889.09;5008252;28;20182;-71
2023/07/21 04:12:50;;;;;;;2.80;2.03;;;;;;;20.48;44.74;96887.91;5007649;28;20272;-72
2023/07/21 04:15:15;;;;;;;2.20;2.00;;;;;;;20.48;44.68;96884.44;5007032;28;20215;-71
2023/07/21 04:17:41;;;;;;;3.77;1.60;;;;;;;20.55;44.27;96882.50;5007993;28;20229;-71
2023/07/21 04:20:09;;;;;;;2.50;2.20;;;;;;;20.53;44.44;96884.59;5007132;28;20267;-72
2023/07/21 04:22:35;;;;;;;2.63;2.30;;;;;;;20.65;44.27;96877.50;5003953;28;20687;-69
2023/07/21 04:25:00;;;;;;;5.60;2.23;;;;;;;20.76;44.20;96880.44;5006883;28;20431;-72
2023/07/21 04:27:28;;;;;;;3.10;2.37;;;;;;;20.81;44.05;96877.91;5007879;28;20204;-71
2023/07/21 04:29:55;;;;;;;3.60;2.30;;;;;;;20.83;44.20;96879.31;5006824;28;20255;-71
2023/07/21 04:32:20;;;;;;;5.87;2.10;;;;;;;20.90;44.42;96878.41;5004132;28;20427;-71
2023/07/21 04:34:46;;;;;;;6.67;2.90;;;;;;;20.88;45.55;96881.31;5003315;28;20436;-71
2023/07/21 04:37:13;;;;;;;3.20;2.20;;;;;;;20.95;45.61;96886.53;5002422;28;20267;-72
2023/07/21 04:39:39;;;;;;;3.03;2.37;;;;;;;21.00;46.03;96890.16;5005851;28;20196;-71
2023/07/21 04:42:05;;;;;;;3.07;2.47;;;;;;;20.98;45.77;96891.41;5005456;28;20446;-72
2023/07/21 04:44:31;;;;;;;2.67;2.17;;;;;;;20.96;45.97;96894.28;5003355;28;20948;-71
2023/07/21 04:46:56;;;;;;;3.03;2.30;;;;;;;20.91;46.58;96890.69;5004789;28;20463;-72
2023/07/21 04:49:21;;;;;;;3.20;2.40;;;;;;;20.91;47.00;96896.84;5004613;28;20184;-73
2023/07/21 04:51:47;;;;;;;5.83;2.70;;;;;;;20.87;46.89;96891.13;5001285;28;20200;-70
2023/07/21 04:54:13;;;;;;;4.30;2.33;;;;;;;20.87;46.75;96898.31;5007089;28;20177;-71
2023/07/21 04:56:38;;;;;;;5.37;2.50;;;;;;;20.83;46.58;96899.78;5009788;28;20235;-72
2023/07/21 04:59:04;;;;;;;3.93;2.00;;;;;;;20.72;47.17;96899.50;5006815;28;20176;-72
2023/07/21 05:01:31;;;;;;;8.43;2.30;;;;;;;20.81;47.13;96905.38;5007636;28;20247;-70
2023/07/21 05:03:57;;;;;;;2.33;2.13;;;;;;;20.82;46.61;96903.50;5009498;28;20181;-72
2023/07/21 05:06:23;;;;;;;2.87;2.00;;;;;;;20.84;46.13;96899.59;5002583;28;21023;-70
2023/07/21 05:08:49;;;;;;;3.73;2.67;;;;;;;20.88;46.77;96897.28;5000475;28;20468;-71
2023/07/21 05:11:15;;;;;;;4.33;2.40;;;;;;;20.95;46.71;96905.19;5002799;28;20268;-70
2023/07/21 05:13:40;;;;;;;3.80;2.53;;;;;;;21.04;46.46;96903.81;5010222;28;20284;-72
2023/07/21 05:16:06;;;;;;;3.47;2.53;;;;;;;21.12;46.34;96903.47;5005044;28;20266;-71
2023/07/21 05:18:31;;;;;;;6.43;2.37;;;;;;;21.15;44.91;96902.25;5008264;28;20223;-70
2023/07/21 05:20:57;;;;;;;3.90;2.67;;;;;;;21.16;44.92;96904.66;5007575;28;20181;-71
2023/07/21 05:23:22;;;;;;;5.67;3.00;;;;;;;21.21;45.46;96901.31;5011332;28;20183;-72
2023/07/21 05:25:47;;;;;;;6.00;2.40;;;;;;;21.24;46.26;96895.53;5010066;28;20298;-71
2023/07/21 05:28:13;;;;;;;8.30;2.40;;;;;;;21.26;46.67;96901.44;5007268;28;20303;-71
2023/07/21 05:30:42;;;;;;;6.50;2.70;;;;;;;21.32;46.70;96892.53;5008890;28;20200;-71
2023/07/21 05:33:08;;;;;;;2.87;2.30;;;;;;;21.41;46.47;96901.00;5006715;28;20182;-72
2023/07/21 05:35:33;;;;;;;2.80;2.33;;;;;;;21.46;46.39;96892.31;5012541;28;20541;-72
2023/07/21 05:37:58;;;;;;;5.93;2.70;;;;;;;21.50;45.63;96893.50;5008879;28;20318;-71
2023/07/21 05:40:24;;;;;;;3.60;2.40;;;;;;;21.52;46.56;96888.75;5015449;28;20271;-74
2023/07/21 05:42:49;;;;;;;4.17;2.07;;;;;;;21.57;46.81;96888.06;5012515;28;20681;-72
2023/07/21 05:45:15;;;;;;;2.33;2.00;;;;;;;21.58;47.01;96890.47;5010395;28;20559;-71
2023/07/21 05:47:41;;;;;;;2.77;2.27;;;;;;;21.66;47.16;96891.22;5010460;28;20753;-71
2023/07/21 05:50:07;;;;;;;3.50;2.60;;;;;;;21.76;46.77;96902.91;5012622;28;20423;-73
2023/07/21 05:52:33;;;;;;;4.03;2.50;;;;;;;21.83;46.38;96886.81;5013167;28;20180;-72
2023/07/21 05:54:58;;;;;;;3.07;2.77;;;;;;;21.91;46.35;96883.81;5014947;28;20424;-72
2023/07/21 05:57:24;;;;;;;3.50;2.20;;;;;;;22.03;45.68;96888.31;5004234;28;20201;-72
2023/07/21 05:59:49;;;;;;;4.20;2.20;;;;;;;22.22;45.51;96884.44;5001524;28;20685;-72
2023/07/21 06:02:15;;;;;;;3.23;2.10;;;;;;;22.40;45.47;96885.34;5003305;28;20215;-71
2023/07/21 06:04:42;;;;;;;6.40;2.50;;;;;;;22.57;45.01;96884.63;5003162;28;20192;-71
2023/07/21 06:07:08;;;;;;;14.60;2.30;;;;;;;22.69;43.99;96885.38;5002780;28;20243;-71
2023/07/21 06:09:34;;;;;;;3.83;2.27;;;;;;;22.80;42.83;96881.06;5009985;28;20464;-72
2023/07/21 06:11:59;;;;;;;4.80;2.27;;;;;;;22.97;42.64;96891.78;5005293;28;20185;-73
2023/07/21 06:14:25;;;;;;;6.60;2.10;;;;;;;23.10;42.36;96891.47;5010357;28;20443;-71
2023/07/21 06:16:50;;;;;;;4.10;2.30;;;;;;;23.15;42.23;96891.59;5010640;28;20615;-71
2023/07/21 06:19:15;;;;;;;2.03;1.83;;;;;;;23.21;41.78;96883.66;5010158;28;20204;-72
2023/07/21 06:21:41;;;;;;;4.73;2.17;;;;;;;23.30;41.63;96888.38;5010400;28;20212;-72
2023/07/21 06:24:06;;;;;;;6.57;2.20;;;;;;;23.38;41.47;96886.34;5013163;28;20311;-73
2023/07/21 06:26:32;;;;;;;8.27;2.40;;;;;;;23.41;41.02;96889.38;5008782;28;20250;-72
2023/07/21 06:28:57;;;;;;;5.33;2.17;;;;;;;23.50;40.82;96896.97;5004911;28;20826;-72
2023/07/21 06:31:23;;;;;;;14.50;2.53;;;;;;;23.53;40.90;96891.94;5011676;28;20184;-70
2023/07/21 06:33:49;;;;;;;1.70;1.50;;;;;;;23.57;38.32;96886.91;5009992;28;20887;-71
2023/07/21 06:36:17;;;;;;;2.83;1.70;;;;;;;23.60;37.58;96897.13;5008981;28;20236;-71
2023/07/21 06:38:43;;;;;;;3.60;1.67;;;;;;;23.67;37.42;96889.78;5002985;28;20192;-72
2023/07/21 06:41:09;;;;;;;1.90;1.63;;;;;;;23.73;37.24;96896.81;5025358;28;20940;-71
2023/07/21 06:43:34;;;;;;;2.10;1.90;;;;;;;23.80;37.26;96885.13;5010502;28;20188;-70
2023/07/21 06:45:59;;;;;;;5.93;1.33;;;;;;;23.88;37.11;96882.84;5009435;28;20612;-72
2023/07/21 06:48:25;;;;;;;1.63;1.47;;;;;;;23.94;36.80;96881.06;5008688;28;20211;-71
2023/07/21 06:50:50;;;;;;;4.17;1.90;;;;;;;23.98;36.37;96881.41;5008332;28;20173;-70
2023/07/21 06:53:17;;;;;;;1.93;1.60;;;;;;;24.06;36.41;96876.44;5012782;28;20220;-73
2023/07/21 06:55:43;;;;;;;1.80;1.60;;;;;;;24.13;36.52;96883.47;5016770;28;20281;-71
2023/07/21 06:58:09;;;;;;;4.50;1.70;;;;;;;24.22;36.20;96881.97;5009613;28;20937;-71
2023/07/21 07:00:35;;;;;;;1.97;1.70;;;;;;;24.39;36.18;96882.75;5010115;28;20199;-72
2023/07/21 07:03:01;;;;;;;4.33;1.53;;;;;;;24.57;35.96;96877.31;5007969;28;20872;-71
2023/07/21 07:05:26;;;;;;;4.80;1.73;;;;;;;24.80;35.98;96885.09;5010157;28;20699;-72
2023/07/21 07:07:53;;;;;;;6.40;1.90;;;;;;;25.08;35.54;96879.72;5009059;28;20208;-73
2023/07/21 07:10:21;;;;;;;1.80;1.70;;;;;;;25.40;35.46;96878.94;5009038;28;20180;-72
2023/07/21 07:12:46;;;;;;;2.83;1.70;;;;;;;25.52;33.92;96887.66;5010311;28;20506;-71
2023/07/21 07:15:12;;;;;;;2.07;1.83;;;;;;;25.51;34.09;96904.00;5009242;28;20422;-71
2023/07/21 07:17:37;;;;;;;4.23;1.53;;;;;;;25.60;33.74;96905.94;5011449;28;20176;-71
2023/07/21 07:20:04;;;;;;;4.00;1.80;;;;;;;25.66;33.66;96911.38;5004709;28;20834;-72
2023/07/21 07:22:29;;;;;;;3.30;1.80;;;;;;;25.68;34.08;96907.34;5008284;28;20192;-72
2023/07/21 07:24:55;;;;;;;2.90;1.47;;;;;;;25.71;34.13;96906.00;5008898;28;20787;-72
2023/07/21 07:27:20;;;;;;;5.03;1.80;;;;;;;25.67;33.76;96910.31;5008997;28;20223;-71
2023/07/21 07:29:46;;;;;;;5.23;1.67;;;;;;;25.57;33.57;96905.66;5010412;28;20192;-72
2023/07/21 07:32:13;;;;;;;5.13;1.70;;;;;;;25.49;33.71;96912.31;5008142;28;20192;-71
2023/07/21 07:34:38;;;;;;;5.00;1.90;;;;;;;25.40;34.09;96909.25;5009036;28;20423;-71
2023/07/21 07:37:04;;;;;;;2.20;1.70;;;;;;;25.19;34.51;96915.50;5008691;28;20815;-72
2023/07/21 07:39:30;;;;;;;4.10;1.70;;;;;;;25.29;34.31;96908.38;5008805;28;20671;-72
2023/07/21 07:41:55;;;;;;;5.50;1.90;;;;;;;25.47;34.24;96917.09;5007166;28;20180;-72
2023/07/21 07:44:20;;;;;;;13.80;1.87;;;;;;;25.77;34.30;96910.38;5008502;28;20553;-71
2023/07/21 07:46:46;;;;;;;2.60;1.77;;;;;;;25.85;34.31;96917.13;5008889;28;20291;-71
2023/07/21 07:49:11;;;;;;;3.37;1.67;;;;;;;26.04;33.80;96909.47;5004991;28;20196;-71
2023/07/21 07:51:38;;;;;;;2.03;1.73;;;;;;;26.22;33.37;96905.56;5008335;28;20186;-71
2023/07/21 07:54:05;;;;;;;2.73;1.83;;;;;;;26.39;32.84;96907.28;5000828;28;20200;-71
2023/07/21 07:56:31;;;;;;;8.43;1.83;;;;;;;26.51;32.76;96914.03;5008821;28;20459;-71
2023/07/21 07:58:57;;;;;;;3.10;1.80;;;;;;;26.63;32.72;96904.94;5012219;28;20443;-72
2023/07/21 08:01:23;;;;;;;3.50;1.80;;;;;;;26.81;32.97;96906.34;5010583;28;20238;-73
2023/07/21 08:03:49;;;;;;;2.47;1.60;;;;;;;26.97;32.17;96920.63;5008045;28;20419;-72
2023/07/21 08:06:15;;;;;;;15.83;1.60;;;;;;;27.16;32.21;96922.84;5008489;28;20208;-72
2023/07/21 08:08:41;;;;;;;7.43;1.80;;;;;;;27.31;32.02;96919.34;5004188;28;20184;-71
2023/07/21 08:11:07;;;;;;;2.20;1.67;;;;;;;27.51;31.86;96921.28;5009659;28;20215;-72
2023/07/21 08:13:33;;;;;;;5.40;1.30;;;;;;;27.71;31.78;96923.97;5009672;28;20790;-71
2023/07/21 08:15:58;;;;;;;5.53;1.80;;;;;;;27.67;31.48;96917.50;5008154;28;20192;-72
2023/07/21 08:18:24;;;;;;;2.17;1.60;;;;;;;26.68;31.79;96929.16;5006671;28;20176;-71
2023/07/21 08:20:50;;;;;;;3.67;2.20;;;;;;;26.13;32.77;96924.03;5009459;28;20177;-72
2023/07/21 08:23:16;;;;;;;1.87;1.60;;;;;;;25.75;33.24;96921.38;5007628;28;20200;-71
2023/07/21 08:25:41;;;;;;;12.47;2.37;;;;;;;26.15;33.07;96921.91;5007697;28;20455;-71
2023/07/21 08:28:07;;;;;;;3.87;1.60;;;;;;;26.75;32.42;96920.84;5008129;28;20212;-70
2023/07/21 08:30:33;;;;;;;6.80;1.50;;;;;;;27.21;31.70;96928.25;5008079;28;20595;-70
2023/07/21 08:32:59;;;;;;;5.50;1.80;;;;;;;27.57;30.12;96929.09;5008091;28;20427;-70
2023/07/21 08:35:27;;;;;;;7.60;1.47;;;;;;;27.88;29.83;96922.88;5008262;28;20187;-70
2023/07/21 08:37:52;;;;;;;4.63;1.47;;;;;;;28.06;29.36;96924.19;5010031;28;20260;-72
2023/07/21 08:40:19;;;;;;;3.73;1.70;;;;;;;28.30;29.27;96913.66;5010876;28;20506;-70
2023/07/21 08:42:44;;;;;;;3.73;1.37;;;;;;;28.54;28.71;96918.41;5011320;28;20184;-72
2023/07/21 08:45:11;;;;;;;2.30;1.43;;;;;;;28.70;28.83;96908.38;5005027;28;20435;-71
2023/07/21 08:47:37;;;;;;;6.90;1.47;;;;;;;28.92;28.52;96908.00;5005219;28;20203;-72
2023/07/21 08:50:04;;;;;;;1.40;1.30;;;;;;;29.14;27.94;96909.50;5005760;28;20832;-71
2023/07/21 08:52:31;;;;;;;1.83;1.50;;;;;;;29.30;28.35;96915.56;5008148;28;20177;-71
2023/07/21 08:54:56;;;;;;;3.73;1.50;;;;;;;29.48;27.61;96922.25;5008231;28;20419;-71
2023/07/21 08:57:22;;;;;;;2.63;1.60;;;;;;;29.51;26.71;96912.78;5011301;28;20439;-72
2023/07/21 08:59:49;;;;;;;3.47;1.30;;;;;;;29.66;27.39;96914.53;5007881;28;20184;-72
2023/07/21 09:02:15;;;;;;;2.10;1.43;;;;;;;29.95;26.79;96916.47;5010613;28;20272;-71
2023/07/21 09:04:43;;;;;;;4.67;1.60;;;;;;;30.17;26.25;96921.38;5011340;28;20415;-71
2023/07/21 09:07:09;;;;;;;2.90;1.50;;;;;;;30.31;25.75;96924.97;5016573;28;20249;-70
2023/07/21 09:09:35;;;;;;;1.60;1.50;;;;;;;30.27;26.13;96923.13;5011230;28;20915;-71
2023/07/21 09:12:04;;;;;;;5.93;1.80;;;;;;;30.25;25.86;96911.81;5013316;28;20417;-71
2023/07/21 09:14:38;;;;;;;4.00;1.90;;;;;;;30.16;25.40;96917.06;5011084;28;20177;-71
2023/07/21 09:17:05;;;;;;;3.20;1.50;;;;;;;30.06;25.64;96914.44;5008527;28;20443;-73
2023/07/21 09:19:37;;;;;;;6.60;1.60;;;;;;;29.89;25.73;96912.97;5010687;28;20883;-71
2023/07/21 09:22:03;;;;;;;4.07;1.57;;;;;;;29.80;25.94;96910.06;5007170;28;20469;-71
2023/07/21 09:24:29;;;;;;;5.17;1.53;;;;;;;29.57;25.97;96915.16;5010562;28;20426;-71
2023/07/21 09:27:15;;;;;;;1.87;1.17;;;;;;;29.35;26.72;96918.28;5010709;28;20459;-71
2023/07/21 09:29:41;;;;;;;6.60;1.57;;;;;;;29.22;26.88;96916.19;5010639;28;20254;-72
2023/07/21 09:32:16;;;;;;;4.63;1.60;;;;;;;29.17;26.54;96913.53;5011382;28;20458;-71
2023/07/21 09:34:59;;;;;;;4.93;1.37;;;;;;;29.29;26.63;96914.00;5012161;28;20422;-73
2023/07/21 09:37:30;;;;;;;7.53;1.40;;;;;;;29.50;25.87;96911.94;5010603;28;20435;-68
2023/07/21 09:40:00;;;;;;;4.53;1.60;;;;;;;29.67;25.24;96916.13;5007887;28;20419;-72
2023/07/21 09:42:27;;;;;;;25.03;1.87;;;;;;;29.75;26.15;96915.50;5014805;28;20462;-71
2023/07/21 09:44:54;;;;;;;5.67;1.63;;;;;;;29.71;25.96;96912.59;5013432;28;20430;-70
2023/07/21 09:47:20;;;;;;;2.70;1.40;;;;;;;29.65;24.84;96907.50;5011180;28;21241;-72
2023/07/21 09:49:48;;;;;;;1.90;1.70;;;;;;;29.61;24.64;96903.78;5010559;28;20510;-71
2023/07/21 09:52:18;;;;;;;4.90;1.80;;;;;;;29.67;25.25;96905.34;5012498;28;20920;-72
2023/07/21 09:54:45;;;;;;;4.27;1.60;;;;;;;29.82;25.18;96907.09;5014087;28;20411;-72
2023/07/21 09:57:15;;;;;;;1.63;1.30;;;;;;;29.86;25.02;96906.25;5009067;28;20428;-70
2023/07/21 09:59:44;;;;;;;2.43;1.30;;;;;;;29.80;24.49;96899.28;5012206;28;20416;-72
2023/07/21 10:02:10;;;;;;;6.73;1.57;;;;;;;29.76;24.11;96897.44;5010739;28;20464;-71
2023/07/21 10:04:35;;;;;;;2.63;1.30;;;;;;;29.83;24.44;96887.91;5010213;28;20984;-71
2023/07/21 10:07:03;;;;;;;2.40;1.57;;;;;;;29.96;24.15;96886.44;5010740;28;20242;-71
2023/07/21 10:09:31;;;;;;;4.57;1.50;;;;;;;29.71;24.40;96885.59;5007418;28;20196;-72
2023/07/21 10:12:17;;;;;;;3.20;1.50;;;;;;;29.82;24.95;96886.31;5006067;28;20450;-71
2023/07/21 10:14:44;;;;;;;3.40;1.40;;;;;;;30.00;24.77;96882.09;5010019;28;20514;-71
2023/07/21 10:17:11;;;;;;;2.67;1.30;;;;;;;30.14;24.13;96879.50;5009434;28;20443;-71
2023/07/21 10:19:40;;;;;;;3.63;1.53;;;;;;;30.23;24.42;96878.88;5008177;28;20423;-72
2023/07/21 10:22:09;;;;;;;5.00;1.30;;;;;;;30.42;23.95;96879.72;5005781;28;20433;-72
2023/07/21 10:24:42;;;;;;;1.73;1.27;;;;;;;30.47;24.07;96889.66;5021027;28;20420;-71
2023/07/21 10:27:08;;;;;;;3.20;1.70;;;;;;;30.48;23.90;96884.00;5007411;28;20512;-72
2023/07/21 10:29:33;;;;;;;1.50;1.40;;;;;;;30.46;24.13;96888.88;5009202;28;20415;-71
2023/07/21 10:31:59;;;;;;;3.07;2.60;;;;;;;30.38;24.01;96892.19;5010120;28;20267;-71
2023/07/21 10:34:34;;;;;;;5.73;1.60;;;;;;;30.31;24.20;96902.56;5010721;28;20804;-70
2023/07/21 10:37:02;;;;;;;7.40;1.93;;;;;;;30.33;24.04;96900.38;5012884;28;20430;-70
2023/07/21 10:39:32;;;;;;;3.03;1.67;;;;;;;30.62;23.35;96897.63;5009721;28;20815;-71
2023/07/21 10:41:59;;;;;;;4.33;1.57;;;;;;;30.89;23.66;96898.06;5008842;28;20415;-71
2023/07/21 10:44:33;;;;;;;2.40;1.60;;;;;;;31.13;23.31;96883.72;5010287;28;20783;-71
2023/07/21 10:46:58;;;;;;;2.83;1.47;;;;;;;31.32;22.80;96881.75;5008581;28;20459;-72
2023/07/21 10:49:24;;;;;;;4.13;1.60;;;;;;;31.49;22.59;96883.13;5013078;28;21060;-69
2023/07/21 10:51:50;;;;;;;1.73;1.33;;;;;;;31.46;22.59;96889.13;5010287;28;20267;-71
2023/07/21 10:54:16;;;;;;;1.47;1.30;;;;;;;31.71;22.26;96883.31;5009458;28;20220;-72
2023/07/21 10:56:49;;;;;;;4.23;1.40;;;;;;;31.92;22.09;96888.34;5010698;28;20578;-71
2023/07/21 10:59:17;;;;;;;1.47;1.17;;;;;;;32.03;21.88;96878.13;5008928;28;20431;-72
2023/07/21 11:01:45;;;;;;;2.70;1.60;;;;;;;31.97;22.74;96882.84;5007455;28;20411;-73
2023/07/21 11:04:11;;;;;;;1.73;1.63;;;;;;;31.96;22.21;96894.78;5015344;28;20435;-71
2023/07/21 11:06:44;;;;;;;6.60;1.30;;;;;;;32.05;22.00;96885.94;5009200;28;20458;-71
2023/07/21 11:09:11;;;;;;;1.67;1.43;;;;;;;31.91;21.44;96886.75;5009567;28;20434;-71
2023/07/21 11:11:47;;;;;;;2.33;1.30;;;;;;;31.92;21.98;96882.13;5005265;28;20514;-71
2023/07/21 11:14:19;;;;;;;1.87;1.30;;;;;;;31.88;22.20;96881.94;5009330;28;20477;-71
2023/07/21 11:16:55;;;;;;;3.43;1.50;;;;;;;31.77;22.53;96880.50;5009912;28;20439;-71
2023/07/21 11:19:22;;;;;;;5.23;1.60;;;;;;;31.89;22.47;96880.03;5008298;28;20431;-71
2023/07/21 11:21:48;;;;;;;3.20;1.57;;;;;;;31.94;22.66;96883.44;5015498;28;20411;-72
2023/07/21 11:24:25;;;;;;;1.80;1.53;;;;;;;31.83;22.46;96890.16;5008264;28;20450;-71
2023/07/21 11:26:53;;;;;;;3.83;1.50;;;;;;;31.62;22.80;96882.38;5009047;28;20212;-72
2023/07/21 11:29:19;;;;;;;2.13;1.30;;;;;;;31.41;22.95;96887.31;5009332;28;21120;-71
2023/07/21 11:31:44;;;;;;;7.67;1.67;;;;;;;31.10;23.10;96885.88;5008861;28;20423;-72